createdAt,value
2019-05-21T00:01:07.775Z,71.77
2019-05-21T00:11:08.989Z,71.24
2019-05-21T00:21:10.440Z,70.55
2019-05-21T00:31:48.877Z,70.20
2019-05-21T00:41:59.343Z,69.83
2019-05-21T00:52:08.206Z,69.34
2019-05-21T01:02:03.586Z,69.99
2019-05-21T01:12:04.740Z,70.40
2019-05-21T01:22:05.854Z,71.25
2019-05-21T01:32:07.003Z,71.62
2019-05-21T01:42:08.231Z,72.39
2019-05-21T01:52:09.310Z,72.43
2019-05-21T02:02:13.301Z,73.21
2019-05-21T02:12:14.339Z,74.27
2019-05-21T02:22:15.456Z,74.24
2019-05-21T02:32:16.610Z,73.81
2019-05-21T02:42:17.636Z,72.26
2019-05-21T02:52:19.087Z,72.10
2019-05-21T03:02:22.066Z,72.75
2019-05-21T03:12:23.221Z,72.95
2019-05-21T03:22:24.372Z,73.02
2019-05-21T03:32:25.515Z,72.97
2019-05-21T03:42:27.515Z,72.87
2019-05-21T03:52:28.582Z,72.63
2019-05-21T04:02:29.641Z,72.62
2019-05-21T04:12:30.646Z,73.13
2019-05-21T04:22:31.776Z,72.71
2019-05-21T04:32:32.833Z,72.26
2019-05-21T04:42:33.868Z,71.12
2019-05-21T04:52:35.105Z,70.56
2019-05-21T05:02:36.379Z,70.52
2019-05-21T05:12:37.540Z,70.14
2019-05-21T05:22:38.564Z,69.16
2019-05-21T05:32:39.735Z,68.43
2019-05-21T05:42:40.839Z,67.76
2019-05-21T05:52:42.001Z,66.41
2019-05-21T06:02:43.042Z,66.59
2019-05-21T06:12:44.278Z,66.91
2019-05-21T06:22:45.318Z,65.97
2019-05-21T06:32:46.357Z,65.95
2019-05-21T06:42:47.401Z,65.46
2019-05-21T06:52:48.565Z,65.14
2019-05-21T07:02:49.698Z,65.50
2019-05-21T07:12:50.829Z,66.35
2019-05-21T07:22:52.056Z,65.33
2019-05-21T07:32:53.272Z,66.35
2019-05-21T07:42:54.259Z,65.64
2019-05-21T07:52:55.596Z,66.42
2019-05-21T08:02:57.168Z,63.89
2019-05-21T08:12:58.397Z,61.66
2019-05-21T08:22:59.559Z,61.98
2019-05-21T08:33:00.588Z,60.76
2019-05-21T08:43:01.836Z,62.30
2019-05-21T08:53:03.305Z,61.74
2019-05-21T09:03:04.558Z,62.25
2019-05-21T09:13:05.702Z,61.59
2019-05-21T09:23:06.930Z,59.67
2019-05-21T09:33:08.148Z,57.10
2019-05-21T09:43:09.116Z,56.69
2019-05-21T09:53:10.396Z,56.93
2019-05-21T10:03:16.427Z,56.48
2019-05-21T10:13:17.659Z,58.76
2019-05-21T10:23:18.810Z,60.84
2019-05-21T10:33:19.863Z,60.78
2019-05-21T10:43:20.976Z,57.58
2019-05-21T10:53:23.107Z,56.84
2019-05-21T11:03:43.996Z,54.74
2019-05-21T11:13:45.131Z,58.51
2019-05-21T11:23:46.214Z,59.34
2019-05-21T11:33:47.456Z,58.96
2019-05-21T11:43:48.708Z,57.48
2019-05-21T11:53:50.203Z,55.21
2019-05-21T12:03:51.459Z,53.73
2019-05-21T12:13:52.562Z,55.73
2019-05-21T12:23:53.594Z,57.86
2019-05-21T12:33:54.748Z,58.55
2019-05-21T12:43:55.769Z,55.24
2019-05-21T12:53:57.207Z,53.47
2019-05-21T13:03:58.426Z,52.27
2019-05-21T13:13:59.442Z,54.73
2019-05-21T13:24:00.490Z,56.27
2019-05-21T13:34:01.655Z,56.08
2019-05-21T13:44:03.262Z,55.32
2019-05-21T13:54:04.530Z,57.39
2019-05-21T14:04:05.689Z,58.27
2019-05-21T14:14:07.074Z,59.98
2019-05-21T14:24:09.249Z,61.64
2019-05-21T14:34:10.544Z,62.79
2019-05-21T14:44:11.690Z,63.75
2019-05-21T14:54:26.263Z,63.40
2019-05-21T15:04:17.699Z,63.40
2019-05-21T15:14:19.054Z,63.24
2019-05-21T15:24:20.261Z,64.54
2019-05-21T15:34:21.572Z,65.74
2019-05-21T15:44:22.682Z,64.82
2019-05-21T15:54:24.146Z,64.37
2019-05-21T16:04:25.867Z,64.39
2019-05-21T16:14:26.902Z,64.34
2019-05-21T16:24:27.965Z,65.01
2019-05-21T16:34:31.877Z,65.24
2019-05-21T16:44:32.499Z,64.76
2019-05-21T16:54:33.683Z,63.56
2019-05-21T17:04:35.016Z,63.52
2019-05-21T17:14:36.204Z,62.67
2019-05-21T17:24:37.521Z,61.86
2019-05-21T17:34:38.755Z,63.98
2019-05-21T17:44:40.266Z,64.54
2019-05-21T17:54:55.559Z,65.19
2019-05-21T18:04:44.661Z,66.31
2019-05-21T18:14:46.753Z,67.66
2019-05-21T18:24:48.867Z,68.30
2019-05-21T18:34:50.959Z,68.51
2019-05-21T18:44:53.287Z,68.62
2019-05-21T18:54:54.622Z,68.44
2019-05-21T19:04:55.729Z,68.68
2019-05-21T19:14:57.139Z,68.41
2019-05-21T19:24:58.408Z,68.18
2019-05-21T19:34:59.681Z,68.39
2019-05-21T19:45:00.937Z,68.44
2019-05-21T19:55:05.191Z,68.55
2019-05-21T20:05:08.049Z,69.44
2019-05-21T20:15:09.902Z,68.57
2019-05-21T20:25:12.748Z,68.53
2019-05-21T20:35:16.113Z,68.38
2019-05-21T20:45:20.486Z,68.28
2019-05-21T20:55:21.958Z,68.22
2019-05-21T21:05:23.687Z,68.35
2019-05-21T21:15:25.566Z,68.36
2019-05-21T21:25:28.025Z,69.59
2019-05-21T21:35:29.385Z,70.23
2019-05-21T21:45:31.532Z,69.83
2019-05-21T21:55:32.960Z,70.20
2019-05-21T22:05:35.021Z,70.29
2019-05-21T22:15:36.783Z,70.31
2019-05-21T22:25:38.133Z,70.34
2019-05-21T22:35:39.480Z,70.03
2019-05-21T22:45:40.685Z,70.62
2019-05-21T22:55:42.754Z,70.62
2019-05-21T23:05:43.979Z,70.65
2019-05-21T23:15:46.992Z,70.86
2019-05-21T23:25:50.044Z,70.66
2019-05-21T23:35:53.007Z,70.71
2019-05-21T23:45:54.217Z,70.96
2019-05-21T23:55:55.736Z,71.11
